Time;durP1;ratioP1;P1;durP2;ratioP2;P2;SDS_P1;SDS_P2;PMS_P1;PMS_P2;Temp;Humidity;BMP_temperature;BMP_pressure;BME280_temperature;BME280_humidity;BME280_pressure;Samples;Min_cycle;Max_cycle;Signal;HPM_P1;HPM_P2
2022/03/29 00:00:17;;;;;;;15.47;9.70;;;12.80;1.00;;;;;;5066518;28;20752;-59
2022/03/29 00:02:43;;;;;;;16.40;10.13;;;12.70;1.00;;;;;;5066933;28;20270;-59
2022/03/29 00:05:09;;;;;;;13.73;9.17;;;12.60;1.00;;;;;;5067380;28;20445;-64
2022/03/29 00:07:35;;;;;;;15.70;9.63;;;12.60;1.00;;;;;;5060224;28;20466;-61
2022/03/29 00:10:05;;;;;;;12.70;7.87;;;12.60;1.00;;;;;;5066265;28;20525;-60
2022/03/29 00:12:32;;;;;;;16.27;10.33;;;12.50;1.00;;;;;;5066163;28;20182;-60
2022/03/29 00:14:58;;;;;;;18.23;9.70;;;12.30;1.00;;;;;;5049651;28;20938;-59
2022/03/29 00:17:23;;;;;;;14.27;10.60;;;12.10;1.00;;;;;;5067859;28;20436;-60
2022/03/29 00:19:49;;;;;;;19.13;10.67;;;12.10;1.00;;;;;;5047082;28;20187;-59
2022/03/29 00:22:15;;;;;;;13.40;10.10;;;;;;;;;;5067386;28;20187;-59
2022/03/29 00:24:40;;;;;;;12.37;9.00;;;12.10;1.00;;;;;;5068778;28;20206;-60
2022/03/29 00:27:06;;;;;;;15.70;9.97;;;12.00;1.00;;;;;;5068587;28;20464;-59
2022/03/29 00:29:32;;;;;;;13.33;9.57;;;11.90;1.00;;;;;;5063189;28;20187;-60
2022/03/29 00:31:57;;;;;;;16.30;10.10;;;11.90;1.00;;;;;;5066071;28;20175;-60
2022/03/29 00:34:23;;;;;;;16.20;10.97;;;11.90;1.00;;;;;;5066618;28;20714;-61
2022/03/29 00:36:48;;;;;;;16.23;10.40;;;11.80;1.00;;;;;;5068897;28;20233;-60
2022/03/29 00:39:15;;;;;;;15.37;9.40;;;11.80;1.00;;;;;;5070037;28;20270;-59
2022/03/29 00:41:40;;;;;;;15.90;10.00;;;11.80;1.00;;;;;;5071583;28;20176;-60
2022/03/29 00:44:06;;;;;;;15.27;10.30;;;11.70;1.00;;;;;;5048751;28;20475;-60
2022/03/29 00:46:35;;;;;;;15.90;9.70;;;11.70;1.00;;;;;;5068269;28;20241;-61
2022/03/29 00:49:01;;;;;;;17.57;10.40;;;11.70;1.00;;;;;;5063593;28;20811;-60
2022/03/29 00:51:27;;;;;;;15.87;10.23;;;11.70;1.00;;;;;;5072599;28;20437;-61
2022/03/29 00:53:53;;;;;;;13.20;9.50;;;11.60;1.00;;;;;;5063140;28;20192;-61
2022/03/29 00:56:20;;;;;;;20.03;9.87;;;11.60;1.00;;;;;;5069046;28;20441;-61
2022/03/29 00:58:46;;;;;;;14.90;9.00;;;11.50;1.00;;;;;;5070265;28;20477;-60
2022/03/29 01:01:13;;;;;;;21.13;9.30;;;11.50;1.00;;;;;;5069483;28;20449;-60
2022/03/29 01:03:41;;;;;;;13.93;9.60;;;11.50;1.00;;;;;;5066936;28;20978;-59
2022/03/29 01:06:07;;;;;;;15.27;8.93;;;11.40;1.00;;;;;;5062681;28;20529;-60
2022/03/29 01:08:34;;;;;;;14.80;10.13;;;11.30;1.00;;;;;;5071118;28;20595;-60
2022/03/29 01:11:00;;;;;;;15.50;10.93;;;11.40;1.00;;;;;;5070334;28;20205;-61
2022/03/29 01:13:26;;;;;;;16.67;10.10;;;11.40;1.00;;;;;;5069946;28;20553;-61
2022/03/29 01:15:51;;;;;;;14.47;10.07;;;11.40;1.00;;;;;;5067333;28;20438;-60
2022/03/29 01:18:18;;;;;;;13.63;8.83;;;11.40;1.00;;;;;;5070715;28;20180;-61
2022/03/29 01:20:47;;;;;;;15.30;10.67;;;11.30;1.00;;;;;;5069567;28;20183;-62
2022/03/29 01:23:14;;;;;;;16.50;9.73;;;11.30;1.00;;;;;;5069198;28;20453;-60
2022/03/29 01:25:42;;;;;;;13.90;9.80;;;11.30;1.00;;;;;;5069547;28;20962;-60
2022/03/29 01:28:07;;;;;;;15.17;10.03;;;11.30;1.00;;;;;;5069858;28;20483;-61
2022/03/29 01:30:34;;;;;;;19.00;10.60;;;11.20;1.00;;;;;;5067370;28;20908;-60
2022/03/29 01:33:01;;;;;;;13.67;9.40;;;11.10;1.00;;;;;;5069688;28;20219;-60
2022/03/29 01:35:28;;;;;;;17.93;9.93;;;10.90;1.00;;;;;;5071648;28;20614;-60
2022/03/29 01:37:54;;;;;;;14.73;9.67;;;11.00;1.00;;;;;;5070012;28;20450;-61
2022/03/29 01:40:22;;;;;;;15.23;10.23;;;11.10;1.00;;;;;;5071066;28;20465;-60
2022/03/29 01:42:49;;;;;;;16.00;10.27;;;11.10;1.00;;;;;;5069309;28;20582;-60
2022/03/29 01:45:16;;;;;;;16.70;10.50;;;11.10;1.00;;;;;;5070283;28;20530;-59
2022/03/29 01:47:42;;;;;;;19.00;11.30;;;11.10;1.00;;;;;;5067122;28;20481;-61
2022/03/29 01:50:14;;;;;;;16.40;10.30;;;11.20;1.00;;;;;;5067920;28;20541;-60
2022/03/29 01:52:41;;;;;;;21.07;11.33;;;11.10;1.00;;;;;;5071069;28;20939;-59
2022/03/29 01:55:08;;;;;;;13.90;9.97;;;11.10;1.00;;;;;;5069197;28;20457;-61
2022/03/29 01:57:34;;;;;;;17.70;11.50;;;11.10;1.00;;;;;;5068455;28;20540;-60
2022/03/29 02:02:44;;;;;;;17.00;11.37;;;;;;;;;;5052251;28;20452;-60
2022/03/29 02:05:10;;;;;;;14.23;9.43;;;11.00;1.00;;;;;;5063419;28;20445;-60
2022/03/29 02:07:36;;;;;;;16.10;10.17;;;10.90;1.00;;;;;;5059971;28;20520;-60
2022/03/29 02:10:02;;;;;;;20.17;10.97;;;10.90;1.00;;;;;;5063837;28;20344;-59
2022/03/29 02:12:27;;;;;;;17.97;10.87;;;10.70;1.00;;;;;;5069541;28;20711;-60
2022/03/29 02:14:53;;;;;;;17.67;10.80;;;10.70;1.00;;;;;;5068729;28;20541;-60
2022/03/29 02:17:19;;;;;;;13.93;10.00;;;10.60;1.00;;;;;;5070745;28;20667;-60
2022/03/29 02:19:44;;;;;;;18.30;11.63;;;10.50;1.00;;;;;;5070564;28;20206;-60
2022/03/29 02:22:10;;;;;;;17.67;10.90;;;10.40;1.00;;;;;;5068822;28;20445;-59
2022/03/29 02:24:35;;;;;;;17.07;9.73;;;10.40;1.00;;;;;;5065908;28;20189;-60
2022/03/29 02:27:01;;;;;;;15.23;10.27;;;10.40;1.00;;;;;;5065772;28;20216;-60
2022/03/29 02:29:27;;;;;;;13.90;10.70;;;10.40;1.00;;;;;;5068251;28;20186;-60
2022/03/29 02:31:52;;;;;;;17.73;11.40;;;10.40;1.00;;;;;;5065048;28;20172;-59
2022/03/29 02:34:18;;;;;;;19.93;11.53;;;10.40;1.00;;;;;;5070234;28;20262;-60
2022/03/29 02:36:43;;;;;;;17.40;11.80;;;10.30;1.00;;;;;;5066606;28;20595;-60
2022/03/29 02:39:10;;;;;;;19.73;11.37;;;10.20;1.00;;;;;;5070961;28;20183;-60
2022/03/29 02:41:36;;;;;;;15.10;10.30;;;10.10;1.00;;;;;;5070743;28;20198;-60
2022/03/29 02:44:02;;;;;;;17.70;11.53;;;10.10;1.00;;;;;;5069926;28;20445;-61
2022/03/29 02:46:28;;;;;;;19.60;12.07;;;10.00;1.00;;;;;;5067809;28;20222;-59
2022/03/29 02:48:54;;;;;;;21.43;13.00;;;10.00;1.00;;;;;;5065106;28;20935;-59
2022/03/29 02:51:19;;;;;;;17.70;11.67;;;9.90;1.00;;;;;;5068818;28;20191;-60
2022/03/29 02:53:45;;;;;;;18.43;12.60;;;9.90;1.00;;;;;;5067685;28;20582;-60
2022/03/29 02:56:10;;;;;;;17.33;11.40;;;9.90;1.00;;;;;;5071217;28;20175;-59
2022/03/29 02:58:36;;;;;;;20.03;13.33;;;9.70;1.00;;;;;;5067212;28;20188;-59
2022/03/29 03:01:01;;;;;;;29.03;13.57;;;9.50;1.00;;;;;;5057327;28;20237;-60
2022/03/29 03:03:29;;;;;;;21.37;13.03;;;9.50;1.00;;;;;;5065436;28;20183;-59
2022/03/29 03:05:55;;;;;;;15.80;11.57;;;;;;;;;;5066235;28;20182;-59
2022/03/29 03:08:20;;;;;;;19.00;12.53;;;9.40;1.00;;;;;;5067952;28;20477;-60
2022/03/29 03:10:46;;;;;;;17.67;11.80;;;;;;;;;;5064563;28;20446;-59
2022/03/29 03:13:11;;;;;;;19.47;12.30;;;9.40;1.00;;;;;;5068372;28;20314;-59
2022/03/29 03:15:37;;;;;;;21.33;12.90;;;9.40;1.00;;;;;;5068609;28;20445;-60
2022/03/29 03:18:03;;;;;;;18.67;11.90;;;9.50;1.00;;;;;;5067341;28;20648;-60
2022/03/29 03:20:29;;;;;;;20.90;12.43;;;9.50;1.00;;;;;;5066641;28;20542;-59
2022/03/29 03:22:55;;;;;;;17.90;12.93;;;9.60;1.00;;;;;;5068980;28;20455;-60
2022/03/29 03:25:21;;;;;;;18.77;13.77;;;9.60;1.00;;;;;;5066630;28;20454;-60
2022/03/29 03:27:47;;;;;;;19.43;13.00;;;9.30;1.00;;;;;;5064911;28;20246;-60
2022/03/29 03:30:14;;;;;;;18.27;12.87;;;9.20;1.00;;;;;;5065046;28;20449;-60
2022/03/29 03:32:41;;;;;;;17.57;12.70;;;10.30;1.00;;;;;;5066602;28;20526;-60
2022/03/29 03:35:07;;;;;;;20.50;13.87;;;9.10;1.00;;;;;;5067987;28;20449;-59
2022/03/29 03:37:34;;;;;;;23.57;14.70;;;9.00;1.00;;;;;;5066636;28;20496;-60
2022/03/29 03:40:00;;;;;;;21.90;15.10;;;8.90;1.00;;;;;;5065919;28;20473;-59
2022/03/29 03:42:25;;;;;;;21.80;13.93;;;9.00;1.00;;;;;;5068759;28;20859;-59
2022/03/29 03:44:51;;;;;;;21.40;14.87;;;9.00;1.00;;;;;;5069659;28;20522;-60
2022/03/29 03:47:16;;;;;;;22.10;15.37;;;9.00;1.00;;;;;;5069260;28;20207;-60
2022/03/29 03:49:42;;;;;;;23.93;14.80;;;8.80;1.00;;;;;;5063997;28;20187;-59
2022/03/29 03:52:08;;;;;;;20.70;14.17;;;8.90;1.00;;;;;;5063884;28;20202;-61
2022/03/29 03:54:35;;;;;;;21.57;14.30;;;8.80;1.00;;;;;;5062795;28;20449;-60
2022/03/29 03:57:00;;;;;;;22.37;15.00;;;8.70;1.00;;;;;;5064350;28;20552;-61
2022/03/29 03:59:26;;;;;;;19.40;13.50;;;8.70;1.00;;;;;;5068645;28;20541;-60
2022/03/29 04:01:52;;;;;;;22.40;13.53;;;;;;;;;;5067383;28;20238;-60
2022/03/29 04:04:18;;;;;;;19.50;14.37;;;8.60;1.00;;;;;;5070594;28;20172;-60
2022/03/29 04:06:44;;;;;;;24.83;16.17;;;8.60;1.00;;;;;;5067357;28;20461;-60
2022/03/29 04:09:09;;;;;;;21.67;15.20;;;8.70;1.00;;;;;;5064982;28;21031;-60
2022/03/29 04:11:35;;;;;;;24.00;14.80;;;8.50;1.00;;;;;;5070343;28;20564;-56
2022/03/29 04:14:01;;;;;;;25.43;15.00;;;8.60;1.00;;;;;;5074875;28;20521;-57
2022/03/29 04:16:27;;;;;;;19.93;14.30;;;8.60;1.00;;;;;;5076392;28;20441;-58
2022/03/29 04:18:53;;;;;;;23.10;15.00;;;8.60;1.00;;;;;;5075750;28;20189;-56
2022/03/29 04:21:18;;;;;;;20.63;14.10;;;8.50;1.00;;;;;;5075290;28;20457;-57
2022/03/29 04:23:44;;;;;;;22.07;14.83;;;8.50;1.00;;;;;;5072312;28;20433;-57
2022/03/29 04:26:10;;;;;;;21.70;15.83;;;8.60;1.00;;;;;;5072575;28;20270;-56
2022/03/29 04:28:36;;;;;;;20.03;13.63;;;8.50;1.00;;;;;;5076051;28;20211;-55
2022/03/29 04:31:01;;;;;;;21.37;14.80;;;8.50;1.00;;;;;;5057490;28;20468;-57
2022/03/29 04:33:27;;;;;;;25.10;15.80;;;8.60;1.00;;;;;;5075633;28;20637;-58
2022/03/29 04:35:53;;;;;;;24.10;16.40;;;8.70;1.00;;;;;;5076643;28;20182;-58
2022/03/29 04:38:19;;;;;;;24.90;15.50;;;8.80;1.00;;;;;;5075941;28;20464;-57
2022/03/29 04:40:45;;;;;;;23.70;16.00;;;8.80;1.00;;;;;;5075725;28;20274;-57
2022/03/29 04:43:11;;;;;;;20.70;14.90;;;8.90;1.00;;;;;;5075389;28;20544;-58
2022/03/29 04:45:36;;;;;;;23.63;14.23;;;9.10;1.00;;;;;;5073898;28;20179;-58
2022/03/29 04:48:03;;;;;;;20.90;15.43;;;9.20;1.00;;;;;;5075581;28;20199;-60
2022/03/29 04:50:29;;;;;;;23.50;15.97;;;9.20;1.00;;;;;;5074399;28;20179;-58
2022/03/29 04:52:55;;;;;;;27.03;16.07;;;9.20;1.00;;;;;;5074395;28;20557;-58
2022/03/29 04:55:20;;;;;;;23.97;15.67;;;9.20;1.00;;;;;;5073783;28;20445;-58
2022/03/29 04:57:47;;;;;;;21.30;14.83;;;9.10;1.00;;;;;;5078695;28;20955;-56
2022/03/29 05:00:16;;;;;;;24.27;15.80;;;9.10;1.00;;;;;;5075291;28;20225;-59
2022/03/29 05:02:46;;;;;;;23.17;15.20;;;9.10;1.00;;;;;;5075946;28;20437;-56
2022/03/29 05:05:12;;;;;;;25.30;16.77;;;9.00;1.00;;;;;;5069262;28;20437;-57
2022/03/29 05:07:38;;;;;;;26.37;16.67;;;9.00;1.00;;;;;;5068481;28;20485;-57
2022/03/29 05:10:04;;;;;;;23.67;15.03;;;9.20;1.00;;;;;;5074053;28;20994;-57
2022/03/29 05:12:38;;;;;;;26.43;16.70;;;9.30;1.00;;;;;;5074390;28;20934;-57
2022/03/29 05:15:04;;;;;;;22.40;14.73;;;9.30;1.00;;;;;;5075443;28;20441;-57
2022/03/29 05:17:31;;;;;;;26.70;16.10;;;9.40;1.00;;;;;;5071890;28;20458;-57
2022/03/29 05:19:56;;;;;;;24.93;16.50;;;9.40;1.00;;;;;;5072556;28;20456;-57
2022/03/29 05:22:22;;;;;;;26.33;15.93;;;9.50;1.00;;;;;;5069876;28;20962;-57
2022/03/29 05:24:47;;;;;;;24.80;16.33;;;9.50;1.00;;;;;;5071103;28;20278;-57
2022/03/29 05:27:13;;;;;;;24.03;14.83;;;9.50;1.00;;;;;;5067422;28;20294;-58
2022/03/29 05:29:38;;;;;;;27.27;17.20;;;9.50;1.00;;;;;;5070903;28;20266;-56
2022/03/29 05:32:05;;;;;;;24.70;16.67;;;9.30;1.00;;;;;;5070000;28;20199;-57
2022/03/29 05:34:31;;;;;;;30.03;16.40;;;9.40;1.00;;;;;;5072044;28;20706;-58
2022/03/29 05:36:57;;;;;;;25.73;16.37;;;9.40;1.00;;;;;;5071759;28;20441;-56
2022/03/29 05:39:22;;;;;;;22.80;16.33;;;9.30;1.00;;;;;;5073228;28;20451;-58
2022/03/29 05:41:48;;;;;;;24.53;16.07;;;9.20;1.00;;;;;;5069206;28;22140;-57
2022/03/29 05:44:13;;;;;;;27.60;16.73;;;9.20;1.00;;;;;;5072761;28;20183;-58
2022/03/29 05:49:24;;;;;;;27.97;18.00;;;9.30;1.00;;;;;;5068318;28;20233;-58
2022/03/29 05:51:52;;;;;;;27.10;18.90;;;9.30;1.00;;;;;;5071270;28;20526;-57
2022/03/29 05:54:18;;;;;;;25.17;15.90;;;9.30;1.00;;;;;;5068779;28;20530;-57
2022/03/29 05:56:44;;;;;;;23.40;15.60;;;9.30;1.00;;;;;;5071547;28;20516;-58
2022/03/29 05:59:10;;;;;;;25.10;15.70;;;9.30;1.00;;;;;;5071780;28;20495;-56
2022/03/29 06:01:37;;;;;;;23.47;17.03;;;9.40;1.00;;;;;;5069582;28;20521;-57
2022/03/29 06:04:06;;;;;;;25.70;15.27;;;9.50;1.00;;;;;;5068174;28;20449;-58
2022/03/29 06:06:33;;;;;;;23.50;16.00;;;9.50;1.00;;;;;;5067881;28;20448;-57
2022/03/29 06:08:58;;;;;;;23.77;17.20;;;9.50;1.00;;;;;;5070456;28;20506;-57
2022/03/29 06:11:24;;;;;;;26.40;16.93;;;9.40;1.00;;;;;;5071483;28;20470;-58
2022/03/29 06:13:49;;;;;;;23.50;15.17;;;9.40;1.00;;;;;;5071094;28;20168;-59
2022/03/29 06:16:15;;;;;;;25.27;15.70;;;9.30;1.00;;;;;;5071442;28;20184;-58
2022/03/29 06:18:40;;;;;;;25.03;15.77;;;9.30;1.00;;;;;;5067710;28;20187;-56
2022/03/29 06:21:06;;;;;;;27.80;16.43;;;9.30;1.00;;;;;;5070362;28;20179;-58
2022/03/29 06:23:31;;;;;;;27.83;16.83;;;9.30;1.00;;;;;;5053021;28;20215;-54
2022/03/29 06:25:57;;;;;;;22.77;16.03;;;9.30;1.00;;;;;;5071250;28;20273;-56
2022/03/29 06:28:22;;;;;;;22.17;16.00;;;9.30;1.00;;;;;;5070256;28;20792;-57
2022/03/29 06:30:48;;;;;;;28.10;17.87;;;9.30;1.00;;;;;;5068559;28;20171;-56
2022/03/29 06:33:14;;;;;;;22.70;16.70;;;9.30;1.00;;;;;;5074147;28;20217;-56
2022/03/29 06:35:39;;;;;;;25.07;17.10;;;9.20;1.00;;;;;;5070651;28;20195;-56
2022/03/29 06:38:06;;;;;;;22.40;16.60;;;9.20;1.00;;;;;;5066654;28;20240;-57
2022/03/29 06:40:32;;;;;;;23.63;15.93;;;9.40;1.00;;;;;;5067735;28;20214;-57
2022/03/29 06:42:59;;;;;;;22.57;15.27;;;9.50;1.00;;;;;;5067753;28;20446;-57
2022/03/29 06:45:26;;;;;;;27.43;18.00;;;9.60;1.00;;;;;;5069283;28;20441;-56
2022/03/29 06:47:51;;;;;;;21.80;15.70;;;9.60;1.00;;;;;;5070705;28;20556;-58
2022/03/29 06:50:17;;;;;;;29.63;18.03;;;9.70;1.00;;;;;;5070027;28;20520;-56
2022/03/29 06:52:44;;;;;;;24.63;16.80;;;9.80;1.00;;;;;;5067409;28;20692;-58
2022/03/29 06:55:12;;;;;;;31.13;18.80;;;9.70;1.00;;;;;;5069440;28;20187;-57
2022/03/29 06:57:37;;;;;;;26.87;17.57;;;9.70;1.00;;;;;;5070287;28;20438;-57
2022/03/29 07:00:05;;;;;;;28.20;18.93;;;9.70;1.00;;;;;;5067359;28;20444;-56
2022/03/29 07:02:30;;;;;;;30.53;18.27;;;9.80;1.00;;;;;;5069645;28;20195;-56
2022/03/29 07:04:56;;;;;;;29.43;18.30;;;9.80;1.00;;;;;;5050528;28;20449;-56
2022/03/29 07:07:22;;;;;;;31.07;19.97;;;9.60;1.00;;;;;;5068550;28;20623;-56
2022/03/29 07:12:34;;;;;;;31.07;19.30;;;9.70;1.00;;;;;;5070567;28;20437;-57
2022/03/29 07:15:00;;;;;;;34.60;20.60;;;9.80;1.00;;;;;;5065197;28;20525;-56
2022/03/29 07:17:26;;;;;;;31.93;19.30;;;9.70;1.00;;;;;;5068424;28;20866;-56
2022/03/29 07:19:52;;;;;;;31.80;20.43;;;9.70;1.00;;;;;;5067623;28;20520;-58
2022/03/29 07:22:18;;;;;;;33.53;22.17;;;9.60;1.00;;;;;;5066427;28;20448;-57
2022/03/29 07:24:44;;;;;;;33.53;20.87;;;9.50;1.00;;;;;;5066551;28;20931;-56
2022/03/29 07:27:10;;;;;;;33.90;20.23;;;;;;;;;;5073002;28;20207;-56
2022/03/29 07:29:36;;;;;;;37.33;21.17;;;9.20;1.00;;;;;;5070256;28;20506;-57
2022/03/29 07:32:02;;;;;;;30.67;19.93;;;9.30;1.00;;;;;;5070878;28;20425;-56
2022/03/29 07:34:29;;;;;;;31.20;21.93;;;9.40;1.00;;;;;;5070219;28;20903;-55
2022/03/29 07:36:56;;;;;;;34.97;22.10;;;9.50;1.00;;;;;;5070443;28;20479;-58
2022/03/29 07:39:22;;;;;;;31.93;19.40;;;9.50;1.00;;;;;;5071464;28;20457;-58
2022/03/29 07:41:49;;;;;;;34.57;21.90;;;9.50;1.00;;;;;;5067564;28;20460;-55
2022/03/29 07:44:14;;;;;;;34.40;22.33;;;9.50;1.00;;;;;;5070543;28;20507;-58
2022/03/29 07:46:40;;;;;;;38.83;21.00;;;9.50;1.00;;;;;;5068797;28;20465;-57
2022/03/29 07:49:05;;;;;;;31.73;22.37;;;9.40;1.00;;;;;;5067190;28;20255;-58
2022/03/29 07:51:31;;;;;;;32.00;20.30;;;9.40;1.00;;;;;;5067470;28;20199;-57
2022/03/29 07:53:56;;;;;;;32.97;20.87;;;9.50;1.00;;;;;;5067461;28;20258;-58
2022/03/29 07:56:22;;;;;;;32.73;21.30;;;9.50;1.00;;;;;;5054897;28;20179;-59
2022/03/29 07:58:47;;;;;;;37.57;21.83;;;9.60;1.00;;;;;;5070330;28;20235;-58
2022/03/29 08:01:13;;;;;;;40.70;22.80;;;9.50;1.00;;;;;;5070290;28;20194;-58
2022/03/29 08:03:39;;;;;;;32.90;21.67;;;9.40;1.00;;;;;;5069684;28;20658;-58
2022/03/29 08:06:05;;;;;;;40.13;23.70;;;9.50;1.00;;;;;;5070418;28;20434;-57
2022/03/29 08:08:32;;;;;;;34.57;22.57;;;9.70;1.00;;;;;;5070168;28;20280;-59
2022/03/29 08:10:58;;;;;;;36.53;22.70;;;9.60;1.00;;;;;;5070248;28;20529;-58
2022/03/29 08:13:24;;;;;;;33.93;22.20;;;9.30;1.00;;;;;;5069956;28;20451;-58
2022/03/29 08:15:53;;;;;;;35.50;23.10;;;9.30;1.00;;;;;;5070093;28;20199;-58
2022/03/29 08:18:19;;;;;;;32.60;20.87;;;9.40;1.00;;;;;;5071670;28;20494;-58
2022/03/29 08:20:45;;;;;;;30.80;21.40;;;9.70;1.00;;;;;;5070133;28;20549;-59
2022/03/29 08:23:12;;;;;;;36.80;21.23;;;;;;;;;;5070051;28;20436;-58
2022/03/29 08:25:39;;;;;;;32.93;21.13;;;9.90;1.00;;;;;;5070154;28;20438;-57
2022/03/29 08:28:05;;;;;;;31.30;20.20;;;9.90;1.00;;;;;;5070057;28;21005;-58
2022/03/29 08:30:32;;;;;;;30.93;21.20;;;9.80;1.00;;;;;;5070194;28;20470;-57
2022/03/29 08:32:59;;;;;;;29.73;19.93;;;9.60;1.00;;;;;;5069739;28;20434;-58
2022/03/29 08:35:25;;;;;;;34.87;21.90;;;9.60;1.00;;;;;;5070044;28;20784;-57
2022/03/29 08:37:51;;;;;;;31.70;20.67;;;9.60;1.00;;;;;;5070013;28;20437;-57
2022/03/29 08:40:22;;;;;;;29.90;21.33;;;9.80;1.00;;;;;;5069777;28;20275;-58
2022/03/29 08:42:49;;;;;;;34.30;21.53;;;9.90;1.00;;;;;;5069981;28;20461;-58
2022/03/29 08:45:16;;;;;;;36.87;22.30;;;9.80;1.00;;;;;;5069565;28;20490;-58
2022/03/29 08:47:44;;;;;;;37.37;22.03;;;9.90;1.00;;;;;;5070909;28;20921;-58
2022/03/29 08:50:12;;;;;;;32.20;21.70;;;9.90;1.00;;;;;;5069597;28;20501;-58
2022/03/29 08:52:39;;;;;;;33.60;21.67;;;9.90;1.00;;;;;;5069829;28;20438;-58
2022/03/29 08:55:06;;;;;;;33.47;20.93;;;9.90;1.00;;;;;;5070021;28;20920;-58
2022/03/29 08:57:32;;;;;;;35.97;23.00;;;9.80;1.00;;;;;;5067066;28;20425;-57
2022/03/29 08:59:59;;;;;;;32.50;22.37;;;9.70;1.00;;;;;;5072506;28;20429;-57
2022/03/29 09:02:25;;;;;;;34.87;23.67;;;9.80;1.00;;;;;;5073333;28;20923;-58
2022/03/29 09:05:16;;;;;;;34.37;22.47;;;9.80;1.00;;;;;;5073553;28;20961;-57
2022/03/29 09:07:50;;;;;;;32.37;20.33;;;9.90;1.00;;;;;;5073423;28;20457;-57
2022/03/29 09:10:16;;;;;;;33.47;20.43;;;9.90;1.00;;;;;;5072727;28;20964;-58
2022/03/29 09:12:42;;;;;;;30.20;20.33;;;10.10;1.00;;;;;;5073132;28;20830;-58
2022/03/29 09:15:09;;;;;;;32.07;21.90;;;10.40;1.00;;;;;;5073305;28;20433;-58
2022/03/29 09:17:39;;;;;;;31.97;21.37;;;10.50;1.00;;;;;;5072787;28;20195;-58
2022/03/29 09:20:12;;;;;;;32.57;21.13;;;10.30;1.00;;;;;;5073263;28;20441;-58
2022/03/29 09:22:48;;;;;;;30.67;20.07;;;10.40;1.00;;;;;;5072832;28;20494;-57
2022/03/29 09:25:20;;;;;;;31.37;21.03;;;10.50;1.00;;;;;;5072728;28;20486;-58
2022/03/29 09:27:52;;;;;;;27.27;18.63;;;10.50;1.00;;;;;;5072735;28;20472;-57
2022/03/29 09:30:18;;;;;;;32.40;20.80;;;10.40;1.00;;;;;;5072792;28;20922;-57
2022/03/29 09:32:54;;;;;;;35.47;23.00;;;10.20;1.00;;;;;;5072649;28;20430;-57
2022/03/29 09:35:20;;;;;;;39.17;21.40;;;10.20;1.00;;;;;;5072514;28;20449;-58
2022/03/29 09:37:46;;;;;;;33.50;22.00;;;10.10;1.00;;;;;;5070183;28;20438;-57
2022/03/29 09:40:12;;;;;;;33.53;22.97;;;10.20;1.00;;;;;;5072668;28;20183;-57
2022/03/29 09:42:41;;;;;;;34.47;21.40;;;10.20;1.00;;;;;;5072597;28;20437;-57
2022/03/29 09:45:08;;;;;;;28.87;20.43;;;10.30;1.00;;;;;;5074304;28;20863;-58
2022/03/29 09:47:35;;;;;;;28.80;19.93;;;;;;;;;;5071600;28;20634;-57
2022/03/29 09:50:06;;;;;;;28.43;18.90;;;10.50;1.00;;;;;;5072212;28;20946;-58
2022/03/29 09:52:39;;;;;;;27.40;20.13;;;10.60;1.00;;;;;;5072244;28;20426;-58
2022/03/29 09:55:21;;;;;;;26.27;19.50;;;10.70;1.00;;;;;;5072483;28;20878;-58
2022/03/29 09:57:47;;;;;;;26.53;18.90;;;11.10;1.00;;;;;;5072245;28;20527;-57
2022/03/29 10:00:16;;;;;;;30.17;19.73;;;;;;;;;;5072390;28;20914;-57
2022/03/29 10:02:45;;;;;;;25.50;18.93;;;10.10;1.00;;;;;;5072042;28;21015;-57
2022/03/29 10:05:11;;;;;;;28.10;19.30;;;10.10;1.00;;;;;;5072172;28;20442;-58
2022/03/29 10:07:51;;;;;;;33.80;21.97;;;10.20;1.00;;;;;;5071846;28;20457;-57
2022/03/29 10:10:18;;;;;;;28.43;19.50;;;10.50;1.00;;;;;;5071476;28;20510;-57
2022/03/29 10:12:44;;;;;;;33.37;21.33;;;10.40;1.00;;;;;;5071937;28;20432;-56
2022/03/29 10:15:12;;;;;;;28.33;17.80;;;10.50;1.00;;;;;;5072829;28;20429;-57
2022/03/29 10:17:40;;;;;;;33.93;21.00;;;10.50;1.00;;;;;;5071573;28;20210;-59
2022/03/29 10:20:08;;;;;;;29.27;19.57;;;10.70;1.00;;;;;;5072176;28;20806;-58
2022/03/29 10:22:35;;;;;;;26.87;18.87;;;10.70;1.00;;;;;;5071909;28;20433;-58
2022/03/29 10:25:01;;;;;;;28.87;19.83;;;10.90;1.00;;;;;;5071895;28;20437;-58
2022/03/29 10:27:28;;;;;;;31.20;20.97;;;10.80;1.00;;;;;;5071675;28;20931;-58
2022/03/29 10:29:53;;;;;;;32.97;19.50;;;10.90;1.00;;;;;;5071767;28;20695;-58
2022/03/29 10:32:31;;;;;;;29.27;19.47;;;10.80;1.00;;;;;;5053864;28;21016;-58
2022/03/29 10:35:23;;;;;;;31.43;20.07;;;10.70;1.00;;;;;;5068952;28;20175;-56
2022/03/29 10:37:56;;;;;;;29.17;20.20;;;10.70;1.00;;;;;;5066696;28;20446;-57
2022/03/29 10:40:35;;;;;;;25.40;19.37;;;11.00;1.00;;;;;;5071897;28;20440;-58
2022/03/29 10:43:43;;;;;;;31.00;19.80;;;11.10;1.00;;;;;;5072885;28;20446;-58
2022/03/29 10:46:42;;;;;;;28.70;19.33;;;11.20;1.00;;;;;;5069372;28;20533;-57
2022/03/29 10:49:22;;;;;;;27.37;18.20;;;11.30;1.00;;;;;;5061870;28;20473;-58
2022/03/29 10:52:06;;;;;;;27.00;18.60;;;11.10;1.00;;;;;;5071229;28;20429;-57
2022/03/29 10:54:36;;;;;;;28.10;18.47;;;11.10;1.00;;;;;;5071267;28;20752;-59
2022/03/29 10:57:06;;;;;;;25.37;18.63;;;11.00;1.00;;;;;;5071079;28;20453;-57
2022/03/29 10:59:36;;;;;;;26.77;19.23;;;11.10;1.00;;;;;;5071360;28;20435;-59
2022/03/29 11:02:20;;;;;;;24.67;18.03;;;11.10;1.00;;;;;;5070591;28;20515;-57
2022/03/29 11:05:04;;;;;;;23.40;16.23;;;11.20;1.00;;;;;;5071018;28;20916;-59
2022/03/29 11:07:39;;;;;;;21.40;16.40;;;11.10;1.00;;;;;;5071204;28;20480;-59
2022/03/29 11:10:16;;;;;;;25.27;18.10;;;11.10;1.00;;;;;;5070972;28;20461;-59
2022/03/29 11:12:51;;;;;;;28.60;18.77;;;11.20;1.00;;;;;;5072386;28;20448;-58
2022/03/29 11:15:35;;;;;;;25.40;17.00;;;11.20;1.00;;;;;;5070894;28;20500;-57
2022/03/29 11:18:04;;;;;;;26.20;17.57;;;11.20;1.00;;;;;;5070929;28;20733;-64
2022/03/29 11:20:32;;;;;;;25.17;18.43;;;11.30;1.00;;;;;;5071427;28;20753;-59
2022/03/29 11:23:11;;;;;;;28.17;19.27;;;11.50;1.00;;;;;;5070258;28;20457;-58
2022/03/29 11:25:39;;;;;;;26.50;19.13;;;11.60;1.00;;;;;;5066822;28;20437;-58
2022/03/29 11:28:09;;;;;;;27.50;19.67;;;11.70;1.00;;;;;;5070811;28;20803;-62
2022/03/29 11:30:35;;;;;;;29.20;19.77;;;11.90;1.00;;;;;;5071280;28;20954;-58
2022/03/29 11:33:03;;;;;;;27.10;19.07;;;11.70;1.00;;;;;;5070698;28;20426;-58
2022/03/29 11:35:30;;;;;;;29.90;18.17;;;11.70;1.00;;;;;;5070397;28;20437;-58
2022/03/29 11:38:12;;;;;;;26.70;19.07;;;11.60;1.00;;;;;;5070657;28;20437;-58
2022/03/29 11:40:39;;;;;;;25.70;18.70;;;11.50;1.00;;;;;;5065486;28;20480;-59
2022/03/29 11:43:10;;;;;;;23.17;16.27;;;11.70;1.00;;;;;;5068988;28;20437;-57
2022/03/29 11:45:42;;;;;;;27.40;18.57;;;11.80;1.00;;;;;;5070421;28;20436;-57
2022/03/29 11:48:12;;;;;;;25.73;16.57;;;12.10;1.00;;;;;;5070636;28;20811;-57
2022/03/29 11:50:43;;;;;;;26.87;18.23;;;11.90;1.00;;;;;;5070163;28;20432;-58
2022/03/29 11:53:30;;;;;;;28.07;18.47;;;12.00;1.00;;;;;;5070275;28;20417;-59
2022/03/29 11:56:07;;;;;;;29.70;18.80;;;12.30;1.00;;;;;;5070287;28;20947;-58
2022/03/29 11:58:37;;;;;;;29.03;19.20;;;12.50;1.00;;;;;;5069899;28;20448;-58
2022/03/29 12:01:20;;;;;;;29.27;20.00;;;12.50;1.00;;;;;;5070314;28;20434;-58
2022/03/29 12:04:05;;;;;;;26.70;19.47;;;12.60;1.00;;;;;;5070662;28;20481;-58
2022/03/29 12:06:32;;;;;;;27.30;19.47;;;12.50;1.00;;;;;;5070162;28;20456;-59
2022/03/29 12:09:07;;;;;;;26.87;18.57;;;12.50;1.00;;;;;;5069339;28;20869;-58
2022/03/29 12:11:35;;;;;;;25.20;19.10;;;12.70;1.00;;;;;;5063918;28;20440;-57
2022/03/29 12:14:18;;;;;;;27.90;20.60;;;12.80;1.00;;;;;;5072282;28;20441;-59
2022/03/29 12:16:44;;;;;;;28.90;19.40;;;12.70;1.00;;;;;;5070112;28;20426;-59
2022/03/29 12:19:14;;;;;;;28.00;20.20;;;12.80;1.00;;;;;;5069851;28;20433;-58
2022/03/29 12:21:42;;;;;;;30.67;19.90;;;12.60;1.00;;;;;;5071627;28;20422;-56
2022/03/29 12:24:09;;;;;;;27.10;20.00;;;12.70;1.00;;;;;;5071769;28;20433;-58
2022/03/29 12:26:49;;;;;;;26.30;18.83;;;12.80;1.00;;;;;;5068815;28;20922;-59
2022/03/29 12:29:25;;;;;;;29.53;19.77;;;12.70;1.00;;;;;;5071796;28;20430;-59
2022/03/29 12:31:52;;;;;;;29.50;20.30;;;13.10;1.00;;;;;;5071352;28;20524;-58
2022/03/29 12:34:28;;;;;;;30.23;20.70;;;12.90;1.00;;;;;;5072821;28;20476;-59
2022/03/29 12:36:55;;;;;;;23.60;19.30;;;12.80;1.00;;;;;;5074366;28;20445;-57
2022/03/29 12:39:21;;;;;;;26.40;19.23;;;12.50;1.00;;;;;;5076046;28;20576;-58
2022/03/29 12:41:55;;;;;;;29.20;20.10;;;12.50;1.00;;;;;;5076140;28;20453;-57
2022/03/29 12:44:31;;;;;;;26.97;17.90;;;12.50;1.00;;;;;;5075233;28;20524;-57
2022/03/29 12:46:58;;;;;;;31.83;20.63;;;12.90;1.00;;;;;;5074488;28;20469;-59
2022/03/29 12:49:24;;;;;;;26.23;18.30;;;12.80;1.00;;;;;;5075298;28;20445;-59
2022/03/29 12:52:13;;;;;;;26.60;18.97;;;12.80;1.00;;;;;;5074692;28;20437;-58
2022/03/29 12:54:50;;;;;;;25.97;18.67;;;12.50;1.00;;;;;;5074804;28;20429;-59
2022/03/29 12:57:21;;;;;;;27.80;18.97;;;12.90;1.00;;;;;;5075093;28;20516;-58